createdAt,value
2017-08-13T00:03:48.587Z,74.21
2017-08-13T00:08:50.558Z,73.98
2017-08-13T00:13:52.582Z,73.70
2017-08-13T00:19:02.395Z,73.51
2017-08-13T00:24:04.398Z,73.64
2017-08-13T00:29:06.379Z,74.01
2017-08-13T00:34:08.423Z,74.59
2017-08-13T00:39:10.409Z,75.41
2017-08-13T00:44:13.134Z,75.72
2017-08-13T00:49:15.218Z,76.20
2017-08-13T00:54:17.278Z,76.54
2017-08-13T00:59:20.184Z,76.68
2017-08-13T01:04:22.188Z,76.68
2017-08-13T01:09:25.567Z,76.56
2017-08-13T01:14:28.348Z,76.59
2017-08-13T01:19:31.281Z,76.42
2017-08-13T01:24:34.137Z,76.49
2017-08-13T01:29:36.117Z,76.36
2017-08-13T01:34:39.560Z,76.23
2017-08-13T01:39:41.847Z,76.24
2017-08-13T01:44:43.790Z,76.31
2017-08-13T01:49:45.787Z,76.15
2017-08-13T01:54:48.305Z,75.86
2017-08-13T01:59:51.514Z,76.11
2017-08-13T02:04:53.443Z,76.47
2017-08-13T02:09:55.399Z,76.80
2017-08-13T02:14:57.394Z,76.73
2017-08-13T02:19:59.393Z,76.80
2017-08-13T02:25:01.968Z,76.83
2017-08-13T02:30:03.949Z,76.74
2017-08-13T02:35:05.953Z,76.96
2017-08-13T02:40:07.931Z,76.99
2017-08-13T02:45:09.909Z,77.01
2017-08-13T02:50:11.926Z,76.95
2017-08-13T02:55:13.868Z,77.16
2017-08-13T03:00:15.855Z,77.17
2017-08-13T03:05:18.189Z,77.35
2017-08-13T03:10:20.155Z,77.11
2017-08-13T03:15:22.110Z,76.90
2017-08-13T03:20:24.054Z,76.63
2017-08-13T03:25:26.004Z,76.63
2017-08-13T03:30:28.735Z,76.90
2017-08-13T03:35:30.790Z,76.76
2017-08-13T03:40:32.743Z,76.58
2017-08-13T03:45:34.772Z,76.59
2017-08-13T03:50:37.115Z,76.73
2017-08-13T03:55:39.091Z,77.18
2017-08-13T04:00:47.984Z,76.88
2017-08-13T04:05:49.941Z,77.18
2017-08-13T04:10:51.930Z,77.11
2017-08-13T04:15:53.912Z,77.42
2017-08-13T04:20:55.863Z,77.11
2017-08-13T04:25:57.825Z,77.32
2017-08-13T04:30:59.790Z,77.14
2017-08-13T04:36:01.772Z,76.94
2017-08-13T04:41:03.722Z,77.13
2017-08-13T04:46:05.708Z,77.02
2017-08-13T04:51:07.679Z,76.92
2017-08-13T04:56:09.639Z,76.78
2017-08-13T05:01:11.629Z,76.60
2017-08-13T05:06:14.351Z,76.42
2017-08-13T05:11:16.479Z,76.16
2017-08-13T05:16:18.480Z,76.05
2017-08-13T05:21:20.612Z,75.77
2017-08-13T05:26:22.599Z,75.49
2017-08-13T05:31:25.230Z,75.04
2017-08-13T05:36:30.516Z,74.93
2017-08-13T05:41:32.575Z,74.40
2017-08-13T05:46:34.565Z,73.75
2017-08-13T05:51:37.274Z,72.88
2017-08-13T05:56:39.227Z,72.43
2017-08-13T06:01:41.222Z,71.72
2017-08-13T06:06:43.922Z,70.92
2017-08-13T06:11:46.753Z,70.02
2017-08-13T06:16:49.500Z,69.81
2017-08-13T06:21:52.004Z,69.51
2017-08-13T06:26:55.449Z,69.16
2017-08-13T06:31:57.528Z,69.04
2017-08-13T06:37:02.265Z,68.57
2017-08-13T06:42:04.595Z,68.36
2017-08-13T06:47:06.596Z,68.04
2017-08-13T06:52:08.601Z,67.55
2017-08-13T06:57:10.660Z,67.19
2017-08-13T07:02:13.511Z,67.28
2017-08-13T07:07:17.307Z,67.31
2017-08-13T07:12:20.715Z,66.33
2017-08-13T07:17:24.815Z,66.44
2017-08-13T07:22:29.168Z,66.31
2017-08-13T07:27:33.196Z,65.35
2017-08-13T07:32:36.714Z,63.58
2017-08-13T07:37:38.708Z,60.79
2017-08-13T07:42:41.231Z,59.19
2017-08-13T07:47:43.868Z,59.76
2017-08-13T07:52:46.224Z,59.26
2017-08-13T07:57:48.290Z,60.49
2017-08-13T08:02:51.788Z,60.64
2017-08-13T08:07:54.139Z,58.16
2017-08-13T08:12:56.230Z,56.94
2017-08-13T08:17:58.185Z,56.35
2017-08-13T08:23:00.152Z,55.14
2017-08-13T08:28:03.015Z,56.61
2017-08-13T08:33:04.972Z,57.25
2017-08-13T08:38:06.895Z,57.79
2017-08-13T08:43:10.379Z,56.53
2017-08-13T08:48:13.645Z,55.10
2017-08-13T08:53:16.178Z,55.31
2017-08-13T08:58:18.218Z,53.25
2017-08-13T09:03:20.981Z,51.84
2017-08-13T09:08:22.971Z,50.06
2017-08-13T09:13:33.960Z,50.56
2017-08-13T09:18:37.990Z,48.92
2017-08-13T09:23:40.166Z,49.09
2017-08-13T09:28:42.178Z,50.04
2017-08-13T09:33:44.243Z,51.84
2017-08-13T09:38:46.392Z,52.38
2017-08-13T09:43:48.701Z,50.67
2017-08-13T09:48:50.680Z,50.19
2017-08-13T09:53:52.632Z,49.43
2017-08-13T09:58:54.680Z,48.98
2017-08-13T10:03:56.804Z,48.56
2017-08-13T10:08:59.199Z,49.01
2017-08-13T10:14:01.225Z,47.73
2017-08-13T10:19:04.015Z,45.80
2017-08-13T10:24:05.984Z,48.11
2017-08-13T10:29:07.946Z,48.41
2017-08-13T10:34:09.914Z,47.12
2017-08-13T10:39:12.449Z,47.79
2017-08-13T10:44:14.429Z,47.82
2017-08-13T10:49:16.407Z,50.64
2017-08-13T10:54:18.476Z,48.55
2017-08-13T10:59:20.518Z,46.87
2017-08-13T11:04:22.457Z,44.11
2017-08-13T11:09:24.494Z,43.12
2017-08-13T11:14:26.547Z,42.15
2017-08-13T11:19:28.671Z,43.70
2017-08-13T11:24:30.726Z,44.22
2017-08-13T11:29:32.663Z,45.73
2017-08-13T11:34:34.611Z,45.31
2017-08-13T11:39:37.386Z,45.06
2017-08-13T11:44:40.110Z,45.35
2017-08-13T11:49:42.093Z,47.12
2017-08-13T11:54:44.876Z,50.15
2017-08-13T11:59:47.641Z,52.06
2017-08-13T12:04:49.705Z,53.38
2017-08-13T12:09:51.676Z,52.48
2017-08-13T12:14:54.025Z,51.27
2017-08-13T12:19:56.037Z,50.32
2017-08-13T12:24:58.886Z,50.00
2017-08-13T12:30:00.847Z,50.37
2017-08-13T12:35:02.851Z,51.06
2017-08-13T12:40:04.898Z,50.22
2017-08-13T12:45:07.152Z,49.67
2017-08-13T12:50:09.141Z,48.69
2017-08-13T12:55:11.125Z,49.82
2017-08-13T13:00:13.101Z,49.26
2017-08-13T13:05:15.075Z,51.02
2017-08-13T13:10:17.047Z,52.94
2017-08-13T13:15:19.051Z,55.14
2017-08-13T13:20:21.075Z,54.35
2017-08-13T13:25:23.051Z,54.01
2017-08-13T13:30:25.272Z,55.47
2017-08-13T13:35:27.292Z,56.24
2017-08-13T13:40:29.322Z,55.37
2017-08-13T13:45:31.330Z,55.18
2017-08-13T13:50:33.292Z,55.49
2017-08-13T13:55:35.295Z,56.72
2017-08-13T14:00:37.222Z,57.82
2017-08-13T14:05:39.193Z,57.26
2017-08-13T14:10:41.887Z,57.29
2017-08-13T14:15:43.842Z,58.30
2017-08-13T14:20:45.758Z,58.45
2017-08-13T14:25:47.701Z,57.52
2017-08-13T14:30:49.666Z,55.48
2017-08-13T14:35:51.694Z,53.78
2017-08-13T14:40:53.666Z,52.83
2017-08-13T14:45:55.636Z,51.94
2017-08-13T14:50:57.701Z,50.75
2017-08-13T14:55:59.751Z,49.85
2017-08-13T15:01:02.779Z,48.10
2017-08-13T15:06:04.738Z,44.71
2017-08-13T15:11:06.722Z,43.59
2017-08-13T15:16:08.722Z,45.12
2017-08-13T15:21:10.714Z,46.14
2017-08-13T15:26:12.678Z,46.54
2017-08-13T15:31:14.613Z,45.32
2017-08-13T15:36:16.604Z,43.87
2017-08-13T15:41:19.368Z,41.63
2017-08-13T15:46:21.323Z,43.17
2017-08-13T15:51:23.278Z,41.06
2017-08-13T15:56:25.256Z,43.00
2017-08-13T16:01:27.212Z,42.83
2017-08-13T16:06:29.179Z,43.06
2017-08-13T16:11:31.194Z,40.99
2017-08-13T16:16:33.183Z,39.79
2017-08-13T16:21:35.132Z,39.61
2017-08-13T16:26:37.104Z,39.84
2017-08-13T16:31:39.806Z,40.71
2017-08-13T16:36:41.739Z,41.83
2017-08-13T16:41:44.430Z,40.85
2017-08-13T16:46:46.375Z,41.32
2017-08-13T16:51:48.342Z,42.38
2017-08-13T16:56:50.332Z,41.82
2017-08-13T17:01:52.293Z,41.71
2017-08-13T17:06:54.286Z,42.07
2017-08-13T17:11:56.406Z,41.20
2017-08-13T17:16:58.662Z,42.06
2017-08-13T17:22:00.643Z,43.39
2017-08-13T17:27:02.652Z,44.03
2017-08-13T17:32:04.597Z,45.19
2017-08-13T17:37:07.274Z,44.99
2017-08-13T17:42:09.282Z,48.26
2017-08-13T17:47:14.306Z,47.95
2017-08-13T17:52:17.476Z,49.42
2017-08-13T17:57:20.535Z,49.86
2017-08-13T18:02:22.689Z,50.47
2017-08-13T18:07:24.672Z,51.14
2017-08-13T18:12:26.744Z,51.85
2017-08-13T18:17:28.742Z,53.31
2017-08-13T18:22:30.715Z,53.29
2017-08-13T18:27:33.398Z,53.49
2017-08-13T18:32:36.952Z,54.07
2017-08-13T18:37:40.120Z,52.87
2017-08-13T18:42:42.099Z,53.23
2017-08-13T18:47:44.776Z,54.80
2017-08-13T18:52:46.760Z,57.26
2017-08-13T18:57:48.804Z,58.78
2017-08-13T19:02:50.988Z,59.15
2017-08-13T19:07:52.919Z,59.92
2017-08-13T19:12:54.921Z,59.80
2017-08-13T19:17:56.869Z,60.45
2017-08-13T19:22:58.884Z,61.30
2017-08-13T19:28:00.839Z,62.63
2017-08-13T19:33:03.559Z,63.09
2017-08-13T19:38:05.503Z,63.34
2017-08-13T19:43:08.138Z,63.05
2017-08-13T19:48:10.404Z,63.08
2017-08-13T19:53:12.370Z,64.56
2017-08-13T19:58:14.311Z,66.15
2017-08-13T20:03:16.296Z,65.83
2017-08-13T20:08:19.022Z,65.96
2017-08-13T20:13:24.359Z,66.18
2017-08-13T20:18:26.693Z,65.94
2017-08-13T20:23:28.662Z,66.30
2017-08-13T20:28:30.727Z,66.28
2017-08-13T20:33:32.708Z,66.91
2017-08-13T20:38:35.575Z,67.28
2017-08-13T20:43:38.283Z,67.57
2017-08-13T20:48:40.319Z,67.92
2017-08-13T20:53:42.287Z,68.00
2017-08-13T20:58:44.282Z,68.17
2017-08-13T21:03:46.991Z,68.56
2017-08-13T21:08:48.928Z,68.32
2017-08-13T21:13:50.975Z,67.89
2017-08-13T21:18:52.954Z,68.52
2017-08-13T21:23:54.958Z,67.92
2017-08-13T21:28:56.958Z,68.32
2017-08-13T21:33:58.938Z,68.58
2017-08-13T21:39:00.898Z,69.03
2017-08-13T21:44:03.570Z,69.32
2017-08-13T21:49:05.539Z,69.73
2017-08-13T21:54:07.499Z,69.74
2017-08-13T21:59:09.468Z,69.62
2017-08-13T22:04:12.171Z,69.63
2017-08-13T22:09:14.934Z,70.41
2017-08-13T22:14:16.948Z,70.87
2017-08-13T22:19:18.911Z,70.89
2017-08-13T22:24:21.465Z,70.88
2017-08-13T22:29:24.161Z,71.00
2017-08-13T22:34:26.200Z,71.85
2017-08-13T22:39:28.241Z,71.27
2017-08-13T22:44:30.251Z,71.22
2017-08-13T22:49:32.200Z,71.71
2017-08-13T22:54:34.139Z,72.29
2017-08-13T22:59:37.875Z,71.90
2017-08-13T23:04:40.317Z,71.58
2017-08-13T23:09:42.339Z,70.81
2017-08-13T23:14:45.558Z,71.19
2017-08-13T23:19:47.515Z,71.11
2017-08-13T23:24:49.460Z,71.15
2017-08-13T23:29:51.375Z,71.14
2017-08-13T23:34:53.351Z,71.42
2017-08-13T23:39:55.314Z,71.94
2017-08-13T23:44:57.538Z,71.21
2017-08-13T23:49:59.495Z,70.94
2017-08-13T23:55:01.807Z,71.16
